sensor_id;sensor_type;location;lat;lon;timestamp;pressure;altitude;pressure_sealevel;temperature;humidity
37832;BME280;23671;38.090;-122.570;2023-03-15T00:01:08;100503.81;;;15.39;72.00
37832;BME280;23671;38.090;-122.570;2023-03-15T00:03:36;100508.78;;;15.34;71.99
37832;BME280;23671;38.090;-122.570;2023-03-15T00:06:04;100512.53;;;15.23;71.78
37832;BME280;23671;38.090;-122.570;2023-03-15T00:08:31;100526.00;;;15.22;72.04
37832;BME280;23671;38.090;-122.570;2023-03-15T00:10:59;100549.41;;;15.18;71.98
37832;BME280;23671;38.090;-122.570;2023-03-15T00:13:30;100562.69;;;15.36;71.68
37832;BME280;23671;38.090;-122.570;2023-03-15T00:15:59;100567.47;;;15.50;71.14
37832;BME280;23671;38.090;-122.570;2023-03-15T00:18:26;100587.66;;;15.61;70.82
37832;BME280;23671;38.090;-122.570;2023-03-15T00:20:53;100595.69;;;15.69;70.96
37832;BME280;23671;38.090;-122.570;2023-03-15T00:23:21;100611.91;;;15.75;70.53
37832;BME280;23671;38.090;-122.570;2023-03-15T00:25:50;100616.72;;;15.80;70.41
37832;BME280;23671;38.090;-122.570;2023-03-15T00:28:17;100626.41;;;15.81;70.65
37832;BME280;23671;38.090;-122.570;2023-03-15T00:30:45;100630.41;;;15.85;70.75
37832;BME280;23671;38.090;-122.570;2023-03-15T00:33:13;100638.53;;;15.83;70.57
37832;BME280;23671;38.090;-122.570;2023-03-15T00:35:43;100647.38;;;15.84;70.51
37832;BME280;23671;38.090;-122.570;2023-03-15T00:38:11;100662.22;;;15.86;70.62
37832;BME280;23671;38.090;-122.570;2023-03-15T00:40:39;100673.03;;;15.85;71.03
37832;BME280;23671;38.090;-122.570;2023-03-15T00:43:06;100675.00;;;15.83;71.04
37832;BME280;23671;38.090;-122.570;2023-03-15T00:45:33;100690.81;;;15.84;71.14
37832;BME280;23671;38.090;-122.570;2023-03-15T00:48:01;100693.66;;;15.83;71.39
37832;BME280;23671;38.090;-122.570;2023-03-15T00:50:28;100698.97;;;15.83;71.19
37832;BME280;23671;38.090;-122.570;2023-03-15T00:52:55;100698.81;;;15.84;71.47
37832;BME280;23671;38.090;-122.570;2023-03-15T00:55:23;100711.28;;;15.84;71.27
37832;BME280;23671;38.090;-122.570;2023-03-15T00:57:50;100713.94;;;15.84;71.57
37832;BME280;23671;38.090;-122.570;2023-03-15T01:00:20;100711.44;;;15.82;71.46
37832;BME280;23671;38.090;-122.570;2023-03-15T01:02:53;100714.94;;;15.83;71.46
37832;BME280;23671;38.090;-122.570;2023-03-15T01:05:21;100728.38;;;15.81;70.99
37832;BME280;23671;38.090;-122.570;2023-03-15T01:07:48;100721.25;;;15.82;71.19
37832;BME280;23671;38.090;-122.570;2023-03-15T01:10:18;100737.91;;;15.84;71.14
37832;BME280;23671;38.090;-122.570;2023-03-15T01:12:45;100740.19;;;15.79;71.18
37832;BME280;23671;38.090;-122.570;2023-03-15T01:15:15;100756.34;;;15.77;71.31
37832;BME280;23671;38.090;-122.570;2023-03-15T01:17:43;100749.16;;;15.78;71.21
37832;BME280;23671;38.090;-122.570;2023-03-15T01:20:12;100760.97;;;15.75;71.12
37832;BME280;23671;38.090;-122.570;2023-03-15T01:22:40;100768.28;;;15.73;71.46
37832;BME280;23671;38.090;-122.570;2023-03-15T01:25:07;100775.88;;;15.68;71.21
37832;BME280;23671;38.090;-122.570;2023-03-15T01:27:35;100765.53;;;15.65;70.84
37832;BME280;23671;38.090;-122.570;2023-03-15T01:30:03;100776.47;;;15.62;70.57
37832;BME280;23671;38.090;-122.570;2023-03-15T01:32:30;100794.28;;;15.62;70.76
37832;BME280;23671;38.090;-122.570;2023-03-15T01:34:57;100785.63;;;15.60;70.45
37832;BME280;23671;38.090;-122.570;2023-03-15T01:37:24;100798.25;;;15.58;70.67
37832;BME280;23671;38.090;-122.570;2023-03-15T01:39:52;100803.03;;;15.54;70.98
37832;BME280;23671;38.090;-122.570;2023-03-15T01:42:20;100810.44;;;15.51;70.46
37832;BME280;23671;38.090;-122.570;2023-03-15T01:44:58;100814.13;;;15.50;70.55
37832;BME280;23671;38.090;-122.570;2023-03-15T01:47:25;100820.72;;;15.45;70.35
37832;BME280;23671;38.090;-122.570;2023-03-15T01:50:00;100832.50;;;15.43;70.17
37832;BME280;23671;38.090;-122.570;2023-03-15T01:52:32;100850.41;;;15.41;70.03
37832;BME280;23671;38.090;-122.570;2023-03-15T01:55:11;100855.50;;;15.34;70.27
37832;BME280;23671;38.090;-122.570;2023-03-15T01:57:49;100858.75;;;15.28;70.07
37832;BME280;23671;38.090;-122.570;2023-03-15T02:00:21;100866.03;;;15.26;70.11
37832;BME280;23671;38.090;-122.570;2023-03-15T02:03:11;100882.16;;;15.25;70.26
37832;BME280;23671;38.090;-122.570;2023-03-15T02:05:55;100889.56;;;15.21;70.21
37832;BME280;23671;38.090;-122.570;2023-03-15T02:08:26;100898.22;;;15.23;69.97
37832;BME280;23671;38.090;-122.570;2023-03-15T02:10:56;100900.19;;;15.21;70.16
37832;BME280;23671;38.090;-122.570;2023-03-15T02:13:25;100899.13;;;15.14;69.78
37832;BME280;23671;38.090;-122.570;2023-03-15T02:15:53;100899.53;;;15.10;70.36
37832;BME280;23671;38.090;-122.570;2023-03-15T02:18:21;100911.19;;;15.09;69.85
37832;BME280;23671;38.090;-122.570;2023-03-15T02:23:38;100914.28;;;15.04;69.66
37832;BME280;23671;38.090;-122.570;2023-03-15T02:26:09;100914.56;;;15.01;69.15
37832;BME280;23671;38.090;-122.570;2023-03-15T02:28:40;100918.34;;;14.99;69.50
37832;BME280;23671;38.090;-122.570;2023-03-15T02:31:08;100911.53;;;14.96;69.63
37832;BME280;23671;38.090;-122.570;2023-03-15T02:33:44;100917.25;;;14.92;69.58
37832;BME280;23671;38.090;-122.570;2023-03-15T02:36:28;100921.03;;;14.89;69.78
37832;BME280;23671;38.090;-122.570;2023-03-15T02:38:55;100921.03;;;14.89;69.83
37832;BME280;23671;38.090;-122.570;2023-03-15T02:41:38;100923.84;;;14.88;68.89
37832;BME280;23671;38.090;-122.570;2023-03-15T02:44:15;100927.78;;;14.84;68.86
37832;BME280;23671;38.090;-122.570;2023-03-15T02:46:45;100925.41;;;14.81;69.07
37832;BME280;23671;38.090;-122.570;2023-03-15T02:49:16;100919.50;;;14.77;68.83
37832;BME280;23671;38.090;-122.570;2023-03-15T02:51:44;100921.78;;;14.72;68.70
37832;BME280;23671;38.090;-122.570;2023-03-15T02:54:11;100930.16;;;14.68;67.94
37832;BME280;23671;38.090;-122.570;2023-03-15T02:56:38;100929.47;;;14.66;67.94
37832;BME280;23671;38.090;-122.570;2023-03-15T02:59:05;100935.09;;;14.63;67.90
37832;BME280;23671;38.090;-122.570;2023-03-15T03:01:32;100929.91;;;14.61;68.15
37832;BME280;23671;38.090;-122.570;2023-03-15T03:04:03;100939.00;;;14.58;68.12
37832;BME280;23671;38.090;-122.570;2023-03-15T03:06:30;100940.13;;;14.56;68.14
37832;BME280;23671;38.090;-122.570;2023-03-15T03:08:57;100942.22;;;14.52;68.14
37832;BME280;23671;38.090;-122.570;2023-03-15T03:11:24;100954.09;;;14.48;68.18
37832;BME280;23671;38.090;-122.570;2023-03-15T03:13:51;100949.78;;;14.47;68.22
37832;BME280;23671;38.090;-122.570;2023-03-15T03:16:18;100947.53;;;14.43;68.27
37832;BME280;23671;38.090;-122.570;2023-03-15T03:18:48;100961.81;;;14.42;68.26
37832;BME280;23671;38.090;-122.570;2023-03-15T03:21:16;100955.94;;;14.38;68.02
37832;BME280;23671;38.090;-122.570;2023-03-15T03:23:43;100959.00;;;14.34;68.28
37832;BME280;23671;38.090;-122.570;2023-03-15T03:26:14;100953.16;;;14.30;67.99
37832;BME280;23671;38.090;-122.570;2023-03-15T03:28:45;100957.16;;;14.25;68.01
37832;BME280;23671;38.090;-122.570;2023-03-15T03:31:21;100965.41;;;14.22;68.41
37832;BME280;23671;38.090;-122.570;2023-03-15T03:33:49;100968.19;;;14.20;68.30
37832;BME280;23671;38.090;-122.570;2023-03-15T03:36:16;100979.50;;;14.13;67.98
37832;BME280;23671;38.090;-122.570;2023-03-15T03:38:44;100978.94;;;14.09;67.96
37832;BME280;23671;38.090;-122.570;2023-03-15T03:41:13;100990.13;;;14.03;68.28
37832;BME280;23671;38.090;-122.570;2023-03-15T03:43:40;100988.56;;;14.01;68.33
37832;BME280;23671;38.090;-122.570;2023-03-15T03:46:08;100996.13;;;13.96;68.00
37832;BME280;23671;38.090;-122.570;2023-03-15T03:48:35;100996.50;;;13.91;68.54
37832;BME280;23671;38.090;-122.570;2023-03-15T03:51:02;101002.22;;;13.87;68.54
37832;BME280;23671;38.090;-122.570;2023-03-15T03:53:29;101003.59;;;13.81;68.49
37832;BME280;23671;38.090;-122.570;2023-03-15T03:55:56;101017.41;;;13.75;68.47
37832;BME280;23671;38.090;-122.570;2023-03-15T03:58:23;101031.09;;;13.71;68.45
37832;BME280;23671;38.090;-122.570;2023-03-15T04:00:51;101054.50;;;13.65;68.21
37832;BME280;23671;38.090;-122.570;2023-03-15T04:03:21;101053.00;;;13.63;68.45
37832;BME280;23671;38.090;-122.570;2023-03-15T04:05:54;101057.97;;;13.56;68.61
37832;BME280;23671;38.090;-122.570;2023-03-15T04:08:22;101053.03;;;13.52;68.27
37832;BME280;23671;38.090;-122.570;2023-03-15T04:10:53;101063.94;;;13.49;68.36
37832;BME280;23671;38.090;-122.570;2023-03-15T04:13:23;101070.34;;;13.46;68.57
37832;BME280;23671;38.090;-122.570;2023-03-15T04:15:51;101059.28;;;13.41;68.40
37832;BME280;23671;38.090;-122.570;2023-03-15T04:18:23;101059.66;;;13.37;68.14
37832;BME280;23671;38.090;-122.570;2023-03-15T04:20:50;101053.09;;;13.31;68.46
37832;BME280;23671;38.090;-122.570;2023-03-15T04:23:21;101059.38;;;13.30;68.15
37832;BME280;23671;38.090;-122.570;2023-03-15T04:25:49;101057.09;;;13.26;68.68
37832;BME280;23671;38.090;-122.570;2023-03-15T04:28:18;101058.91;;;13.25;68.27
37832;BME280;23671;38.090;-122.570;2023-03-15T04:30:46;101045.06;;;13.22;68.70
37832;BME280;23671;38.090;-122.570;2023-03-15T04:33:13;101046.44;;;13.16;68.67
37832;BME280;23671;38.090;-122.570;2023-03-15T04:35:40;101052.81;;;13.14;68.99
37832;BME280;23671;38.090;-122.570;2023-03-15T04:38:10;101066.50;;;13.09;68.93
37832;BME280;23671;38.090;-122.570;2023-03-15T04:40:37;101079.97;;;13.06;68.63
37832;BME280;23671;38.090;-122.570;2023-03-15T04:43:05;101075.66;;;13.05;68.65
37832;BME280;23671;38.090;-122.570;2023-03-15T04:45:32;101090.94;;;13.02;68.60
37832;BME280;23671;38.090;-122.570;2023-03-15T04:48:00;101089.63;;;12.96;68.43
37832;BME280;23671;38.090;-122.570;2023-03-15T04:50:28;101105.66;;;12.95;68.53
37832;BME280;23671;38.090;-122.570;2023-03-15T04:52:57;101105.09;;;12.91;69.16
37832;BME280;23671;38.090;-122.570;2023-03-15T04:55:25;101129.16;;;12.88;68.27
37832;BME280;23671;38.090;-122.570;2023-03-15T04:57:52;101125.94;;;12.85;68.79
37832;BME280;23671;38.090;-122.570;2023-03-15T05:00:19;101119.34;;;12.79;68.30
37832;BME280;23671;38.090;-122.570;2023-03-15T05:02:47;101126.69;;;12.75;68.60
37832;BME280;23671;38.090;-122.570;2023-03-15T05:05:22;101125.25;;;12.71;68.70
37832;BME280;23671;38.090;-122.570;2023-03-15T05:07:49;101120.81;;;12.72;68.93
37832;BME280;23671;38.090;-122.570;2023-03-15T05:10:16;101130.91;;;12.78;68.37
37832;BME280;23671;38.090;-122.570;2023-03-15T05:12:44;101123.78;;;12.78;68.23
37832;BME280;23671;38.090;-122.570;2023-03-15T05:15:11;101124.63;;;12.79;68.34
37832;BME280;23671;38.090;-122.570;2023-03-15T05:17:38;101127.06;;;12.82;68.47
37832;BME280;23671;38.090;-122.570;2023-03-15T05:20:05;101125.47;;;12.79;67.96
37832;BME280;23671;38.090;-122.570;2023-03-15T05:22:40;101133.06;;;12.73;68.04
37832;BME280;23671;38.090;-122.570;2023-03-15T05:25:09;101130.81;;;12.68;68.23
37832;BME280;23671;38.090;-122.570;2023-03-15T05:27:37;101137.69;;;12.60;68.79
37832;BME280;23671;38.090;-122.570;2023-03-15T05:30:05;101142.63;;;12.53;68.83
37832;BME280;23671;38.090;-122.570;2023-03-15T05:32:33;101143.03;;;12.49;68.94
37832;BME280;23671;38.090;-122.570;2023-03-15T05:35:01;101142.53;;;12.44;68.75
37832;BME280;23671;38.090;-122.570;2023-03-15T05:37:28;101151.72;;;12.40;68.61
37832;BME280;23671;38.090;-122.570;2023-03-15T05:39:55;101162.66;;;12.35;68.91
37832;BME280;23671;38.090;-122.570;2023-03-15T05:42:22;101164.81;;;12.30;68.90
37832;BME280;23671;38.090;-122.570;2023-03-15T05:44:55;101168.44;;;12.29;69.16
37832;BME280;23671;38.090;-122.570;2023-03-15T05:47:23;101181.22;;;12.24;69.46
37832;BME280;23671;38.090;-122.570;2023-03-15T05:49:50;101181.22;;;12.24;68.74
37832;BME280;23671;38.090;-122.570;2023-03-15T05:52:17;101188.44;;;12.22;69.09
37832;BME280;23671;38.090;-122.570;2023-03-15T05:54:45;101190.69;;;12.16;69.37
37832;BME280;23671;38.090;-122.570;2023-03-15T05:57:12;101205.97;;;12.12;69.72
37832;BME280;23671;38.090;-122.570;2023-03-15T05:59:39;101204.91;;;12.15;69.29
37832;BME280;23671;38.090;-122.570;2023-03-15T06:02:07;101208.13;;;12.07;69.75
37832;BME280;23671;38.090;-122.570;2023-03-15T06:04:34;101209.09;;;12.06;69.11
37832;BME280;23671;38.090;-122.570;2023-03-15T06:07:03;101217.38;;;12.02;69.12
37832;BME280;23671;38.090;-122.570;2023-03-15T06:09:30;101215.84;;;11.99;69.63
37832;BME280;23671;38.090;-122.570;2023-03-15T06:11:58;101226.66;;;11.96;69.20
37832;BME280;23671;38.090;-122.570;2023-03-15T06:14:28;101228.94;;;11.90;69.67
37832;BME280;23671;38.090;-122.570;2023-03-15T06:16:55;101232.53;;;11.88;69.74
37832;BME280;23671;38.090;-122.570;2023-03-15T06:19:22;101215.31;;;11.83;69.79
37832;BME280;23671;38.090;-122.570;2023-03-15T06:21:49;101217.13;;;11.82;69.26
37832;BME280;23671;38.090;-122.570;2023-03-15T06:24:17;101223.72;;;11.77;69.75
37832;BME280;23671;38.090;-122.570;2023-03-15T06:26:44;101230.06;;;11.74;69.89
37832;BME280;23671;38.090;-122.570;2023-03-15T06:29:11;101212.88;;;11.69;69.45
37832;BME280;23671;38.090;-122.570;2023-03-15T06:31:38;101226.22;;;11.67;69.60
37832;BME280;23671;38.090;-122.570;2023-03-15T06:34:05;101236.28;;;11.62;69.81
37832;BME280;23671;38.090;-122.570;2023-03-15T06:36:32;101241.66;;;11.61;69.75
37832;BME280;23671;38.090;-122.570;2023-03-15T06:38:59;101233.00;;;11.59;69.86
37832;BME280;23671;38.090;-122.570;2023-03-15T06:41:28;101236.94;;;11.53;69.39
37832;BME280;23671;38.090;-122.570;2023-03-15T06:43:56;101239.84;;;11.50;69.75
37832;BME280;23671;38.090;-122.570;2023-03-15T06:46:23;101248.09;;;11.46;69.44
37832;BME280;23671;38.090;-122.570;2023-03-15T06:48:50;101233.34;;;11.43;69.49
37832;BME280;23671;38.090;-122.570;2023-03-15T06:51:17;101243.06;;;11.43;69.81
37832;BME280;23671;38.090;-122.570;2023-03-15T06:53:44;101243.19;;;11.41;69.70
37832;BME280;23671;38.090;-122.570;2023-03-15T06:56:11;101247.09;;;11.36;69.50
37832;BME280;23671;38.090;-122.570;2023-03-15T06:58:38;101248.06;;;11.35;69.50
37832;BME280;23671;38.090;-122.570;2023-03-15T07:01:06;101263.31;;;11.31;69.72
37832;BME280;23671;38.090;-122.570;2023-03-15T07:03:33;101269.78;;;11.27;69.62
37832;BME280;23671;38.090;-122.570;2023-03-15T07:06:00;101262.78;;;11.26;69.56
37832;BME280;23671;38.090;-122.570;2023-03-15T07:08:27;101273.91;;;11.19;69.68
37832;BME280;23671;38.090;-122.570;2023-03-15T07:10:54;101276.69;;;11.17;69.44
37832;BME280;23671;38.090;-122.570;2023-03-15T07:13:21;101279.44;;;11.16;69.77
37832;BME280;23671;38.090;-122.570;2023-03-15T07:15:52;101275.34;;;11.12;69.67
37832;BME280;23671;38.090;-122.570;2023-03-15T07:18:19;101277.34;;;11.08;69.77
37832;BME280;23671;38.090;-122.570;2023-03-15T07:20:46;101271.53;;;11.03;69.90
37832;BME280;23671;38.090;-122.570;2023-03-15T07:23:13;101274.31;;;11.02;69.83
37832;BME280;23671;38.090;-122.570;2023-03-15T07:25:40;101258.69;;;10.98;69.68
37832;BME280;23671;38.090;-122.570;2023-03-15T07:28:07;101252.78;;;10.95;69.94
37832;BME280;23671;38.090;-122.570;2023-03-15T07:30:34;101255.63;;;10.92;69.91
37832;BME280;23671;38.090;-122.570;2023-03-15T07:33:02;101260.19;;;10.90;69.91
37832;BME280;23671;38.090;-122.570;2023-03-15T07:35:29;101259.56;;;10.86;69.95
37832;BME280;23671;38.090;-122.570;2023-03-15T07:37:56;101271.09;;;10.85;70.02
37832;BME280;23671;38.090;-122.570;2023-03-15T07:40:23;101272.25;;;10.81;69.74
37832;BME280;23671;38.090;-122.570;2023-03-15T07:42:52;101273.94;;;10.82;69.83
37832;BME280;23671;38.090;-122.570;2023-03-15T07:45:19;101277.75;;;10.78;69.80
37832;BME280;23671;38.090;-122.570;2023-03-15T07:47:46;101285.03;;;10.75;69.72
37832;BME280;23671;38.090;-122.570;2023-03-15T07:50:13;101281.56;;;10.74;69.97
37832;BME280;23671;38.090;-122.570;2023-03-15T07:52:41;101287.81;;;10.73;70.08
37832;BME280;23671;38.090;-122.570;2023-03-15T07:55:08;101282.63;;;10.72;70.14
37832;BME280;23671;38.090;-122.570;2023-03-15T07:57:35;101273.31;;;10.66;70.10
37832;BME280;23671;38.090;-122.570;2023-03-15T08:00:02;101275.34;;;10.63;70.00
37832;BME280;23671;38.090;-122.570;2023-03-15T08:02:30;101281.59;;;10.62;70.26
37832;BME280;23671;38.090;-122.570;2023-03-15T08:04:57;101286.25;;;10.58;69.92
37832;BME280;23671;38.090;-122.570;2023-03-15T08:07:24;101287.81;;;10.61;69.88
37832;BME280;23671;38.090;-122.570;2023-03-15T08:09:51;101279.38;;;10.56;69.95
37832;BME280;23671;38.090;-122.570;2023-03-15T08:12:18;101276.72;;;10.56;69.58
37832;BME280;23671;38.090;-122.570;2023-03-15T08:14:45;101290.16;;;10.53;69.86
37832;BME280;23671;38.090;-122.570;2023-03-15T08:17:12;101285.69;;;10.53;69.97
37832;BME280;23671;38.090;-122.570;2023-03-15T08:19:41;101286.78;;;10.51;69.78
37832;BME280;23671;38.090;-122.570;2023-03-15T08:22:09;101284.97;;;10.51;69.65
37832;BME280;23671;38.090;-122.570;2023-03-15T08:24:36;101281.19;;;10.43;69.75
37832;BME280;23671;38.090;-122.570;2023-03-15T08:27:04;101290.66;;;10.45;69.77
37832;BME280;23671;38.090;-122.570;2023-03-15T08:29:31;101287.41;;;10.42;69.77
37832;BME280;23671;38.090;-122.570;2023-03-15T08:31:58;101297.56;;;10.35;69.93
37832;BME280;23671;38.090;-122.570;2023-03-15T08:34:25;101304.81;;;10.32;70.12
37832;BME280;23671;38.090;-122.570;2023-03-15T08:36:52;101315.38;;;10.32;69.91
37832;BME280;23671;38.090;-122.570;2023-03-15T08:39:19;101305.78;;;10.31;69.78
37832;BME280;23671;38.090;-122.570;2023-03-15T08:41:49;101320.25;;;10.25;69.85
37832;BME280;23671;38.090;-122.570;2023-03-15T08:44:16;101315.91;;;10.24;69.84
37832;BME280;23671;38.090;-122.570;2023-03-15T08:46:43;101317.91;;;10.21;70.00
37832;BME280;23671;38.090;-122.570;2023-03-15T08:49:10;101309.47;;;10.16;69.58
37832;BME280;23671;38.090;-122.570;2023-03-15T08:51:37;101309.25;;;10.19;69.76
37832;BME280;23671;38.090;-122.570;2023-03-15T08:54:04;101313.03;;;10.15;69.51
37832;BME280;23671;38.090;-122.570;2023-03-15T08:56:32;101326.34;;;10.13;69.61
37832;BME280;23671;38.090;-122.570;2023-03-15T08:58:59;101334.16;;;10.15;69.82
37832;BME280;23671;38.090;-122.570;2023-03-15T09:01:26;101346.41;;;10.16;69.36
37832;BME280;23671;38.090;-122.570;2023-03-15T09:03:55;101342.56;;;10.07;69.83
37832;BME280;23671;38.090;-122.570;2023-03-15T09:06:23;101352.47;;;10.03;69.93
37832;BME280;23671;38.090;-122.570;2023-03-15T09:08:50;101357.84;;;10.02;69.96
37832;BME280;23671;38.090;-122.570;2023-03-15T09:11:19;101364.91;;;10.01;69.82
37832;BME280;23671;38.090;-122.570;2023-03-15T09:13:47;101372.66;;;10.04;69.48
37832;BME280;23671;38.090;-122.570;2023-03-15T09:16:15;101371.97;;;10.01;69.59
37832;BME280;23671;38.090;-122.570;2023-03-15T09:18:42;101365.53;;;9.92;69.71
37832;BME280;23671;38.090;-122.570;2023-03-15T09:21:10;101374.84;;;9.98;69.48
37832;BME280;23671;38.090;-122.570;2023-03-15T09:23:37;101373.34;;;9.94;69.49
37832;BME280;23671;38.090;-122.570;2023-03-15T09:26:04;101380.28;;;9.95;69.51
37832;BME280;23671;38.090;-122.570;2023-03-15T09:28:31;101378.22;;;10.00;68.89
37832;BME280;23671;38.090;-122.570;2023-03-15T09:31:02;101379.38;;;9.96;69.39
37832;BME280;23671;38.090;-122.570;2023-03-15T09:33:30;101370.69;;;9.94;69.41
37832;BME280;23671;38.090;-122.570;2023-03-15T09:35:58;101381.75;;;9.86;69.60
37832;BME280;23671;38.090;-122.570;2023-03-15T09:38:26;101373.56;;;9.91;69.20
37832;BME280;23671;38.090;-122.570;2023-03-15T09:40:57;101388.72;;;9.87;68.89
37832;BME280;23671;38.090;-122.570;2023-03-15T09:43:53;101391.78;;;9.81;69.19
37832;BME280;23671;38.090;-122.570;2023-03-15T09:46:38;101381.50;;;9.77;69.43
37832;BME280;23671;38.090;-122.570;2023-03-15T09:49:27;101378.63;;;9.67;69.41
37832;BME280;23671;38.090;-122.570;2023-03-15T09:52:44;101386.53;;;9.67;69.84
37832;BME280;23671;38.090;-122.570;2023-03-15T10:00:33;101392.47;;;9.71;69.00
37832;BME280;23671;38.090;-122.570;2023-03-15T10:03:03;101393.06;;;9.62;68.98
37832;BME280;23671;38.090;-122.570;2023-03-15T10:05:43;101390.44;;;9.62;69.58
37832;BME280;23671;38.090;-122.570;2023-03-15T10:08:16;101389.84;;;9.57;69.64
37832;BME280;23671;38.090;-122.570;2023-03-15T10:11:12;101405.38;;;9.61;68.65
37832;BME280;23671;38.090;-122.570;2023-03-15T10:14:03;101406.53;;;9.57;69.00
37832;BME280;23671;38.090;-122.570;2023-03-15T10:16:41;101406.72;;;9.54;68.88
37832;BME280;23671;38.090;-122.570;2023-03-15T10:27:34;101406.91;;;9.51;68.98
37832;BME280;23671;38.090;-122.570;2023-03-15T10:30:17;101406.53;;;9.43;69.07
37832;BME280;23671;38.090;-122.570;2023-03-15T10:35:45;101399.59;;;9.42;68.96
37832;BME280;23671;38.090;-122.570;2023-03-15T10:38:19;101404.03;;;9.42;69.20
37832;BME280;23671;38.090;-122.570;2023-03-15T10:43:30;101408.91;;;9.34;68.87
37832;BME280;23671;38.090;-122.570;2023-03-15T10:46:08;101406.59;;;9.29;69.15
37832;BME280;23671;38.090;-122.570;2023-03-15T10:48:43;101401.75;;;9.36;69.01
37832;BME280;23671;38.090;-122.570;2023-03-15T10:51:26;101397.84;;;9.29;68.73
37832;BME280;23671;38.090;-122.570;2023-03-15T10:53:57;101399.50;;;9.30;68.89
37832;BME280;23671;38.090;-122.570;2023-03-15T10:56:28;101395.47;;;9.24;69.14
37832;BME280;23671;38.090;-122.570;2023-03-15T10:58:57;101397.34;;;9.22;69.02
37832;BME280;23671;38.090;-122.570;2023-03-15T11:01:32;101408.22;;;9.18;68.78
37832;BME280;23671;38.090;-122.570;2023-03-15T11:04:12;101400.09;;;9.21;69.02
37832;BME280;23671;38.090;-122.570;2023-03-15T11:07:01;101392.28;;;9.19;68.89
37832;BME280;23671;38.090;-122.570;2023-03-15T11:09:46;101391.53;;;9.17;68.41
37832;BME280;23671;38.090;-122.570;2023-03-15T11:12:22;101388.81;;;9.18;68.84
37832;BME280;23671;38.090;-122.570;2023-03-15T11:14:55;101385.53;;;9.15;68.79
37832;BME280;23671;38.090;-122.570;2023-03-15T11:17:28;101387.19;;;9.16;68.02
37832;BME280;23671;38.090;-122.570;2023-03-15T11:20:31;101378.53;;;9.14;67.96
37832;BME280;23671;38.090;-122.570;2023-03-15T11:23:16;101375.91;;;9.14;68.81
37832;BME280;23671;38.090;-122.570;2023-03-15T11:25:45;101383.16;;;9.10;68.54
37832;BME280;23671;38.090;-122.570;2023-03-15T11:28:17;101383.66;;;9.03;68.49
37832;BME280;23671;38.090;-122.570;2023-03-15T11:30:47;101380.09;;;9.04;68.52
37832;BME280;23671;38.090;-122.570;2023-03-15T11:33:40;101374.81;;;9.04;68.06
37832;BME280;23671;38.090;-122.570;2023-03-15T11:36:17;101383.66;;;9.03;68.02
37832;BME280;23671;38.090;-122.570;2023-03-15T11:38:45;101369.94;;;8.98;68.51
37832;BME280;23671;38.090;-122.570;2023-03-15T11:41:41;101384.03;;;8.97;68.61
37832;BME280;23671;38.090;-122.570;2023-03-15T11:44:31;101391.91;;;8.97;68.29
37832;BME280;23671;38.090;-122.570;2023-03-15T11:49:53;101388.63;;;8.93;67.91
37832;BME280;23671;38.090;-122.570;2023-03-15T11:52:23;101385.25;;;8.91;68.55
37832;BME280;23671;38.090;-122.570;2023-03-15T11:54:58;101382.81;;;8.88;68.65
37832;BME280;23671;38.090;-122.570;2023-03-15T11:57:37;101381.88;;;8.89;68.66
37832;BME280;23671;38.090;-122.570;2023-03-15T12:02:57;101387.34;;;8.86;68.11
37832;BME280;23671;38.090;-122.570;2023-03-15T12:05:58;101392.13;;;8.80;68.49
37832;BME280;23671;38.090;-122.570;2023-03-15T12:16:41;101376.50;;;8.77;68.23
37832;BME280;23671;38.090;-122.570;2023-03-15T12:19:15;101374.81;;;8.76;68.20
37832;BME280;23671;38.090;-122.570;2023-03-15T12:21:51;101368.78;;;8.74;68.27
37832;BME280;23671;38.090;-122.570;2023-03-15T12:24:26;101373.50;;;8.69;68.61
37832;BME280;23671;38.090;-122.570;2023-03-15T12:27:16;101374.34;;;8.69;68.38
37832;BME280;23671;38.090;-122.570;2023-03-15T12:29:43;101373.50;;;8.69;68.42
37832;BME280;23671;38.090;-122.570;2023-03-15T12:34:49;101379.03;;;8.64;68.14
37832;BME280;23671;38.090;-122.570;2023-03-15T12:39:57;101377.34;;;8.63;68.16
37832;BME280;23671;38.090;-122.570;2023-03-15T12:47:48;101385.72;;;8.56;68.36
37832;BME280;23671;38.090;-122.570;2023-03-15T12:55:51;101400.75;;;8.54;68.18
37832;BME280;23671;38.090;-122.570;2023-03-15T12:58:21;101392.09;;;8.52;68.56
37832;BME280;23671;38.090;-122.570;2023-03-15T13:00:53;101398.47;;;8.48;68.20
37832;BME280;23671;38.090;-122.570;2023-03-15T13:03:22;101403.84;;;8.46;68.45
37832;BME280;23671;38.090;-122.570;2023-03-15T13:06:08;101407.22;;;8.48;68.54
37832;BME280;23671;38.090;-122.570;2023-03-15T13:08:46;101409.09;;;8.46;68.84
37832;BME280;23671;38.090;-122.570;2023-03-15T13:11:34;101412.00;;;8.42;68.96
37832;BME280;23671;38.090;-122.570;2023-03-15T13:25:39;101432.47;;;8.37;68.28
37832;BME280;23671;38.090;-122.570;2023-03-15T13:28:22;101427.28;;;8.35;68.09
37832;BME280;23671;38.090;-122.570;2023-03-15T13:30:54;101426.47;;;8.35;69.00
37832;BME280;23671;38.090;-122.570;2023-03-15T13:33:30;101435.28;;;8.34;68.82
37832;BME280;23671;38.090;-122.570;2023-03-15T13:38:53;101431.97;;;8.30;69.12
37832;BME280;23671;38.090;-122.570;2023-03-15T13:41:26;101433.00;;;8.27;69.10
37832;BME280;23671;38.090;-122.570;2023-03-15T13:43:56;101427.03;;;8.24;68.91
37832;BME280;23671;38.090;-122.570;2023-03-15T13:46:27;101426.28;;;8.22;68.95